Jump to content


AMERICAN AIRLINES FLIGHT AA561 FLOWN ON 06-16-2017 BY CAPTAIN JIM BOERMAN

Pilot StatsCaptain Jim Boerman (LDP136) • 4,616.9 total hours • 1,400 total flights [View Logbook]
FLIGHT DETAILS
StatusReceived and approved on 2017-06-16 at 10:06:03
Origin AirportLuis Munoz Marin Intl (TJSJ) • San Juan, Puerto Rico (9 feet MSL)
Filed Flight PlanFLIGHT PLANNER OFFLINE
Destination AirportV C Bird Intl (TAPA) • St Johns, Antigua and Barbuda (60 feet MSL)
Alternate AirportLe Raizet (TFFR) • Pointe-A-Pitre, Guadeloupe (36 feet MSL)
AirlineAmerican Airlines
AircraftBoeing 737-800 | Winglets (73H / B737-800)
FS Aircraft UsedBoeing 737-823NGX American Airlines (N838NN) Winglets
Cruising AltitudeFL350
Distance Flown253 nautical miles
Passengers Onboard57 passengers (35.19% full)
DEPARTURE DETAILS
Time Out09:55:03
Taxi Data144,875 lbs total with 11,850 lbs of fuel onboard
Takeoff Data10:03:18 (8 minutes after leaving gate/ramp) • 144,402 lbs total • 8° pitch at 158 knots
Departure METARTJSJ 161256Z 10010KT 10SM FEW025 SCT090 30/23 A3004 RMK AO2 SLP172 T03000228
ARRIVAL DETAILS
Landing Data10:49:34 • 138,923 lbs total • 4° pitch doing 128 knots at a rate of -63.82 feet/minute with 5,535 lbs of fuel onboard
Time In10:57:04 (8 minutes after landing)
Ramp Weight138,560 lbs total
Total Fuel Used6,315 lbs
Total Block Time01:00:06 (1 hour) while 16 minutes were spent on the ground
Arrival METARTAPA 161400Z 09009KT 9999 SCT022 29/23 Q1017 NOSIG
MISCELLANEOUS DETAILS
LiveDISPATCH Version4.8.3.1
FS Version
FSUIPC Version4.93
OS VersionWindows 7 32-bit
Screen Resolution1920 x 1080
Pilot's CommentsNo Comments Reported
FLIGHT MAP